Bentonville, AR

11:03 PM CDT on March 25, 2017 (GMT -0500)
Bentonville Municipal-Thaden | | Change Station

Elev 1296 ft 36.35 °N, 94.22 °W | Updated 8 minutes ago

Overcast
Overcast
46 °F
Feels Like 44 °F
N
5
Wind Variable Wind from WSW

Today
High -- | Low -- °F
--% Chance of Precip.
Yesterday
High -- | Low -- °F
Precip. -- in
Pressure 29.95 in
Visibility 9.0 miles
Clouds Few 600 ft
Overcast 1300 ft
Windchill 44 °F
Dew Point 43 °F
Humidity 87%
Rainfall 0.18 in
Snow Depth Not available.
7:12 AM 7:33 PM
Waning Crescent, 5% visible
METAR KVBT 260355Z AUTO 25004KT 9SM FEW006 OVC013 08/06 A2995 RMK AO1
Pressure 29.95 in
Visibility 9.0 miles
Clouds Few 600 ft
Overcast 1300 ft
Windchill 44 °F
Dew Point 43 °F
Humidity 87%
Rainfall 0.18 in
Snow Depth Not available.
7:12 AM 7:33 PM
Waning Crescent, 5% visible
METAR KVBT 260355Z AUTO 25004KT 9SM FEW006 OVC013 08/06 A2995 RMK AO1

Get Severe Weather Alerts

Thanks for signing up!

Be on the lookout for a verification email in your inbox.

You'll start receiving the daily forecast at 8 AM.

×

10-Day Weather Forecast

Almanac

Astronomy

Mar. 25, 2017 Rise Set
Actual Time
Civil Twilight
Nautical Twilight
Astronomical Twilight
Moon
Length of Visible Light
Length of Day
Tomorrow will be .
, % of the Moon is Illuminated

Today's Extremes

State Highs State Lows

Community

WunderPhotos

Upload Photos

1,962,540 photos uploaded!

WunderBlog® & News

Nearby

Air Quality

  Air Quality AQ Index Pollutant
Not available.

Snow Depth

Station Depth Elevation

Earthquake Activity

City Distance Mag. Time & Date
Minimum magnitude displayed is 2.5.

Earthquake Activity

City Distance Mag. Time & Date
Minimum magnitude displayed is 2.5.

Coastal Water Temperatures

Place Temperature

Stations

Nearby Weather Stations

Station Location Temp. Windchill Dew Point Humidity Wind Precip. Elev Updated Type
                   

Watches & Warnings

There are currently no watches in effect.